createdAt,value
2022-09-27T00:00:45.941Z,7.13
2022-09-27T00:03:13.462Z,5.87
2022-09-27T00:05:40.258Z,7.17
2022-09-27T00:08:06.861Z,6.83
2022-09-27T00:10:33.285Z,6.70
2022-09-27T00:12:59.719Z,6.97
2022-09-27T00:15:26.470Z,6.97
2022-09-27T00:17:53.215Z,7.47
2022-09-27T00:20:20.841Z,7.43
2022-09-27T00:22:48.200Z,7.33
2022-09-27T00:25:15.449Z,7.43
2022-09-27T00:27:41.900Z,7.47
2022-09-27T00:30:09.552Z,7.20
2022-09-27T00:32:36.092Z,8.23
2022-09-27T00:35:02.470Z,9.07
2022-09-27T00:37:29.111Z,9.50
2022-09-27T00:39:55.480Z,9.00
2022-09-27T00:42:21.872Z,9.23
2022-09-27T00:45:01.132Z,9.27
2022-09-27T00:47:33.004Z,9.90
2022-09-27T00:50:06.056Z,10.00
2022-09-27T00:52:41.955Z,10.93
2022-09-27T00:55:16.692Z,12.10
2022-09-27T00:57:44.763Z,11.63
2022-09-27T01:00:12.928Z,13.03
2022-09-27T01:02:43.141Z,12.10
2022-09-27T01:05:11.527Z,13.90
2022-09-27T01:07:38.571Z,14.47
2022-09-27T01:10:05.758Z,15.40
2022-09-27T01:12:41.183Z,15.60
2022-09-27T01:15:17.445Z,16.00
2022-09-27T01:18:16.873Z,15.97
2022-09-27T01:21:27.972Z,14.80
2022-09-27T01:24:22.512Z,16.10
2022-09-27T01:27:22.376Z,15.30
2022-09-27T01:30:07.489Z,14.87
2022-09-27T01:32:38.149Z,14.13
2022-09-27T01:35:25.775Z,13.83
2022-09-27T01:38:07.337Z,13.20
2022-09-27T01:40:45.443Z,12.23
2022-09-27T01:43:18.433Z,11.83
2022-09-27T01:46:01.120Z,10.93
2022-09-27T01:48:33.344Z,11.97
2022-09-27T01:51:05.743Z,10.20
2022-09-27T01:53:38.680Z,10.93
2022-09-27T01:56:10.175Z,11.37
2022-09-27T01:58:57.872Z,9.40
2022-09-27T02:01:25.660Z,10.13
2022-09-27T02:03:53.546Z,9.70
2022-09-27T02:06:33.821Z,9.23
2022-09-27T02:09:18.843Z,9.50
2022-09-27T02:11:53.993Z,8.40
2022-09-27T02:14:27.476Z,7.80
2022-09-27T02:16:55.730Z,8.30
2022-09-27T02:19:39.148Z,7.73
2022-09-27T02:22:30.482Z,7.67
2022-09-27T02:25:28.405Z,6.67
2022-09-27T02:28:00.737Z,6.73
2022-09-27T02:30:27.433Z,6.50
2022-09-27T02:32:54.060Z,6.30
2022-09-27T02:35:29.766Z,5.47
2022-09-27T02:37:56.734Z,5.57
2022-09-27T02:40:24.060Z,5.47
2022-09-27T02:42:50.762Z,4.70
2022-09-27T02:45:18.549Z,5.07
2022-09-27T02:47:47.811Z,5.53
2022-09-27T02:50:24.063Z,4.90
2022-09-27T02:53:13.506Z,4.97
2022-09-27T02:56:02.034Z,4.13
2022-09-27T02:58:46.724Z,3.80
2022-09-27T03:01:42.298Z,3.97
2022-09-27T03:04:14.727Z,4.13
2022-09-27T03:06:42.843Z,3.47
2022-09-27T03:09:23.405Z,3.67
2022-09-27T03:11:49.897Z,3.57
2022-09-27T03:14:16.908Z,3.20
2022-09-27T03:16:43.345Z,3.00
2022-09-27T03:19:09.927Z,2.73
2022-09-27T03:21:37.297Z,2.40
2022-09-27T03:24:04.080Z,3.10
2022-09-27T03:26:30.470Z,1.93
2022-09-27T03:28:57.414Z,1.83
2022-09-27T03:31:23.975Z,2.03
2022-09-27T03:33:50.637Z,2.13
2022-09-27T03:36:17.044Z,1.80
2022-09-27T03:38:43.457Z,1.57
2022-09-27T03:41:09.836Z,1.80
2022-09-27T03:43:36.276Z,1.97
2022-09-27T03:46:02.787Z,1.50
2022-09-27T03:48:31.115Z,1.73
2022-09-27T03:50:57.537Z,1.43
2022-09-27T03:53:24.670Z,1.27
2022-09-27T03:55:51.071Z,1.80
2022-09-27T03:58:17.485Z,1.93
2022-09-27T04:00:46.128Z,2.43
2022-09-27T04:03:13.606Z,2.23
2022-09-27T04:05:40.103Z,2.83
2022-09-27T04:08:07.787Z,2.67
2022-09-27T04:10:34.323Z,2.97
2022-09-27T04:13:00.762Z,2.70
2022-09-27T04:15:27.360Z,3.40
2022-09-27T04:17:53.773Z,3.70
2022-09-27T04:20:20.153Z,3.70
2022-09-27T04:22:46.584Z,4.27
2022-09-27T04:25:13.312Z,4.80
2022-09-27T04:27:45.693Z,4.60
2022-09-27T04:30:13.153Z,4.50
2022-09-27T04:32:43.853Z,4.97
2022-09-27T04:35:30.124Z,5.27
2022-09-27T04:37:56.676Z,5.57
2022-09-27T04:40:23.884Z,5.70
2022-09-27T04:42:53.306Z,5.33
2022-09-27T04:45:20.345Z,5.13
2022-09-27T04:47:48.588Z,4.80
2022-09-27T04:50:17.363Z,4.93
2022-09-27T04:52:44.117Z,4.60
2022-09-27T04:55:10.946Z,4.80
2022-09-27T04:57:37.474Z,4.50
2022-09-27T05:00:04.996Z,3.77
2022-09-27T05:02:31.543Z,4.37
2022-09-27T05:04:59.164Z,3.93
2022-09-27T05:07:28.817Z,3.80
2022-09-27T05:09:55.800Z,3.63
2022-09-27T05:12:22.537Z,3.70
2022-09-27T05:14:48.934Z,3.30
2022-09-27T05:17:15.380Z,3.47
2022-09-27T05:19:41.801Z,3.57
2022-09-27T05:22:08.863Z,3.10
2022-09-27T05:24:35.613Z,3.10
2022-09-27T05:27:02.311Z,3.20
2022-09-27T05:29:28.861Z,3.20
2022-09-27T05:31:55.233Z,3.27
2022-09-27T05:34:21.665Z,3.50
2022-09-27T05:36:48.280Z,3.90
2022-09-27T05:39:16.887Z,3.60
2022-09-27T05:41:43.835Z,3.37
2022-09-27T05:44:10.385Z,3.40
2022-09-27T05:46:36.857Z,3.67
2022-09-27T05:49:03.424Z,3.63
2022-09-27T05:51:29.851Z,4.37
2022-09-27T05:53:56.384Z,4.00
2022-09-27T05:56:22.737Z,3.87
2022-09-27T05:58:49.143Z,3.73
2022-09-27T06:01:15.651Z,4.93
2022-09-27T06:03:42.955Z,4.33
2022-09-27T06:06:10.731Z,4.27
2022-09-27T06:08:38.613Z,4.03
2022-09-27T06:11:07.729Z,4.50
2022-09-27T06:13:36.241Z,4.47
2022-09-27T06:16:03.725Z,3.87
2022-09-27T06:18:30.188Z,4.07
2022-09-27T06:20:59.331Z,3.93
2022-09-27T06:23:25.837Z,4.30
2022-09-27T06:25:53.378Z,4.10
2022-09-27T06:28:21.311Z,3.80
2022-09-27T06:30:49.608Z,3.50
2022-09-27T06:33:19.889Z,3.80
2022-09-27T06:35:47.457Z,3.57
2022-09-27T06:38:16.675Z,3.80
2022-09-27T06:40:47.113Z,3.83
2022-09-27T06:43:16.039Z,3.03
2022-09-27T06:45:42.868Z,3.13
2022-09-27T06:48:12.472Z,3.17
2022-09-27T06:50:40.672Z,2.57
2022-09-27T06:53:09.308Z,2.57
2022-09-27T06:55:35.840Z,2.77
2022-09-27T06:58:21.057Z,2.33
2022-09-27T07:00:54.028Z,2.20
2022-09-27T07:03:23.151Z,2.20
2022-09-27T07:05:57.354Z,2.30
2022-09-27T07:08:26.219Z,2.63
2022-09-27T07:10:53.618Z,1.73
2022-09-27T07:13:20.113Z,2.30
2022-09-27T07:15:46.500Z,2.70
2022-09-27T07:18:12.923Z,2.10
2022-09-27T07:20:39.879Z,1.80
2022-09-27T07:23:07.609Z,2.00
2022-09-27T07:25:34.713Z,1.47
2022-09-27T07:28:06.466Z,1.70
2022-09-27T07:30:34.021Z,2.07
2022-09-27T07:33:02.095Z,1.37
2022-09-27T07:35:29.012Z,1.40
2022-09-27T07:37:56.928Z,1.53
2022-09-27T07:40:24.529Z,1.57
2022-09-27T07:42:55.431Z,1.53
2022-09-27T07:45:23.250Z,1.60
2022-09-27T07:47:49.805Z,1.40
2022-09-27T07:50:16.383Z,1.33
2022-09-27T07:52:44.939Z,1.40
2022-09-27T07:55:13.157Z,1.30
2022-09-27T07:57:39.990Z,1.30
2022-09-27T08:00:08.658Z,0.87
2022-09-27T08:02:35.200Z,1.40
2022-09-27T08:05:03.099Z,0.90
2022-09-27T08:07:29.992Z,0.90
2022-09-27T08:09:56.583Z,1.10
2022-09-27T08:12:23.230Z,1.20
2022-09-27T08:14:49.893Z,1.10
2022-09-27T08:17:17.427Z,1.10
2022-09-27T08:19:45.435Z,1.10
2022-09-27T08:22:16.493Z,1.20
2022-09-27T08:24:43.101Z,1.00
2022-09-27T08:27:12.048Z,1.03
2022-09-27T08:29:41.898Z,1.00
2022-09-27T08:32:12.074Z,1.00
2022-09-27T08:34:38.887Z,1.00
2022-09-27T08:37:05.802Z,1.20
2022-09-27T08:39:32.965Z,0.87
2022-09-27T08:42:12.000Z,1.10
2022-09-27T08:44:50.536Z,1.00
2022-09-27T08:47:27.425Z,0.90
2022-09-27T08:50:23.231Z,1.00
2022-09-27T08:56:01.599Z,1.23
2022-09-27T08:58:40.722Z,1.00
2022-09-27T09:01:18.401Z,0.90
2022-09-27T09:03:50.077Z,0.87
2022-09-27T09:06:28.201Z,0.80
2022-09-27T09:09:10.094Z,1.00
2022-09-27T09:12:20.221Z,0.90
2022-09-27T09:14:59.267Z,0.80
2022-09-27T09:17:38.496Z,0.67
2022-09-27T09:20:46.639Z,0.90
2022-09-27T09:23:13.337Z,0.80
2022-09-27T09:26:07.389Z,1.00
2022-09-27T09:28:50.466Z,0.90
2022-09-27T09:31:38.706Z,0.90
2022-09-27T09:34:20.810Z,0.73
2022-09-27T09:37:04.039Z,0.97
2022-09-27T09:39:38.194Z,1.03
2022-09-27T09:42:19.717Z,0.87
2022-09-27T09:44:54.183Z,0.90
2022-09-27T09:47:36.921Z,1.10
2022-09-27T09:50:27.359Z,1.20
2022-09-27T09:53:12.870Z,1.20
2022-09-27T09:55:42.300Z,1.67
2022-09-27T09:58:23.225Z,0.90
2022-09-27T10:00:52.230Z,1.33
2022-09-27T10:03:19.656Z,1.53
2022-09-27T10:05:46.285Z,1.40
2022-09-27T10:08:18.231Z,1.60
2022-09-27T10:10:45.216Z,1.40
2022-09-27T10:13:22.083Z,1.20
2022-09-27T10:16:09.432Z,1.53
2022-09-27T10:18:37.399Z,1.33
2022-09-27T10:21:19.219Z,1.20
2022-09-27T10:24:12.301Z,1.27
2022-09-27T10:26:43.822Z,1.50
2022-09-27T10:29:20.240Z,1.17
2022-09-27T10:31:48.315Z,1.23
2022-09-27T10:34:24.641Z,1.13
2022-09-27T10:37:15.525Z,1.27
2022-09-27T10:39:42.120Z,1.30
2022-09-27T10:42:35.123Z,1.53
2022-09-27T10:45:32.826Z,1.73
2022-09-27T10:48:01.189Z,1.40
2022-09-27T10:50:50.901Z,1.00
2022-09-27T10:53:20.288Z,1.23
2022-09-27T10:55:51.264Z,1.30
2022-09-27T10:58:26.797Z,1.00
2022-09-27T11:01:07.959Z,1.03
2022-09-27T11:03:38.182Z,1.00
2022-09-27T11:06:23.030Z,1.20
2022-09-27T11:08:53.093Z,1.30
2022-09-27T11:11:21.281Z,1.70
2022-09-27T11:14:04.595Z,1.10
2022-09-27T11:16:45.778Z,1.50
2022-09-27T11:19:45.312Z,1.43
2022-09-27T11:22:27.192Z,1.50
2022-09-27T11:25:04.866Z,1.50
2022-09-27T11:27:46.250Z,1.40
2022-09-27T11:30:23.091Z,1.40
2022-09-27T11:32:58.917Z,1.87
2022-09-27T11:35:47.333Z,1.50
2022-09-27T11:38:53.742Z,1.43
2022-09-27T11:41:45.352Z,1.40
2022-09-27T11:44:39.515Z,1.73
2022-09-27T11:47:21.048Z,1.63
2022-09-27T11:50:01.051Z,1.50
2022-09-27T11:52:48.842Z,1.70
2022-09-27T11:55:19.742Z,1.50
2022-09-27T11:57:55.307Z,2.00
2022-09-27T12:00:24.320Z,1.80
2022-09-27T12:03:08.982Z,1.97
2022-09-27T12:06:07.059Z,2.00
2022-09-27T12:08:55.433Z,1.83
2022-09-27T12:11:29.279Z,1.83
2022-09-27T12:13:59.945Z,2.30
2022-09-27T12:16:27.209Z,2.30
2022-09-27T12:18:54.635Z,2.10
2022-09-27T12:21:21.777Z,1.97
2022-09-27T12:23:55.048Z,2.30
2022-09-27T12:26:41.440Z,1.60
2022-09-27T12:29:15.032Z,1.87
2022-09-27T12:31:51.819Z,1.80
2022-09-27T12:34:45.067Z,1.60
2022-09-27T12:37:31.884Z,2.00
2022-09-27T12:40:08.304Z,1.47
2022-09-27T12:45:18.106Z,1.63
2022-09-27T12:48:01.305Z,2.20
2022-09-27T12:50:44.162Z,2.03
2022-09-27T12:53:22.826Z,1.90
2022-09-27T12:56:10.748Z,1.80
2022-09-27T12:58:59.061Z,1.87
2022-09-27T13:01:25.532Z,1.90
2022-09-27T13:04:11.762Z,1.40
2022-09-27T13:06:59.574Z,1.40
2022-09-27T13:09:45.193Z,2.13
2022-09-27T13:12:14.590Z,1.60
2022-09-27T13:15:18.180Z,1.70
2022-09-27T13:17:44.801Z,1.67
2022-09-27T13:20:32.628Z,1.90
2022-09-27T13:22:59.879Z,1.50
2022-09-27T13:25:55.543Z,1.40
2022-09-27T13:28:45.855Z,1.20
2022-09-27T13:31:15.960Z,1.10
2022-09-27T13:33:51.636Z,0.83
2022-09-27T13:36:22.385Z,0.80
2022-09-27T13:39:17.310Z,1.00
2022-09-27T13:41:48.496Z,1.03
2022-09-27T13:44:43.001Z,1.20
2022-09-27T13:47:36.085Z,1.00
2022-09-27T13:50:17.860Z,0.93
2022-09-27T13:53:06.972Z,0.90
2022-09-27T13:55:47.471Z,0.70
2022-09-27T13:58:19.880Z,0.90
2022-09-27T14:00:50.692Z,0.70
2022-09-27T14:03:30.592Z,0.77
2022-09-27T14:05:59.428Z,0.70
2022-09-27T14:08:32.691Z,0.70
2022-09-27T14:11:00.648Z,0.60
2022-09-27T14:13:27.352Z,0.60
2022-09-27T14:15:54.826Z,0.50
2022-09-27T14:18:22.416Z,0.70
2022-09-27T14:20:52.211Z,0.70
2022-09-27T14:23:23.929Z,0.70
2022-09-27T14:25:52.766Z,0.70
2022-09-27T14:28:24.627Z,0.60
2022-09-27T14:31:18.343Z,0.50
2022-09-27T14:33:45.558Z,0.50
2022-09-27T14:36:43.454Z,0.70
2022-09-27T14:39:32.380Z,0.60
2022-09-27T14:42:04.615Z,0.67
2022-09-27T14:44:31.592Z,0.60
2022-09-27T14:47:09.201Z,0.87
2022-09-27T14:49:36.932Z,0.60
2022-09-27T14:52:16.928Z,0.60
2022-09-27T14:54:44.244Z,0.70
2022-09-27T14:57:13.444Z,0.73
2022-09-27T14:59:44.486Z,0.60
2022-09-27T15:02:21.598Z,0.80
2022-09-27T15:04:54.369Z,0.70
2022-09-27T15:07:29.631Z,0.80
2022-09-27T15:09:57.547Z,0.70
2022-09-27T15:12:25.936Z,0.80
2022-09-27T15:14:54.318Z,0.60
2022-09-27T15:17:21.629Z,0.67
2022-09-27T15:19:59.453Z,0.90
2022-09-27T15:22:35.994Z,0.67
2022-09-27T15:25:32.429Z,0.80
2022-09-27T15:28:20.431Z,0.90
2022-09-27T15:30:54.675Z,0.60
2022-09-27T15:33:31.266Z,0.80
2022-09-27T15:36:03.933Z,0.87
2022-09-27T15:38:51.496Z,0.67
2022-09-27T15:41:20.235Z,1.07
2022-09-27T15:43:48.252Z,0.83
2022-09-27T15:46:34.739Z,0.83
2022-09-27T15:49:19.587Z,0.87
2022-09-27T15:51:47.661Z,0.80
2022-09-27T15:54:14.343Z,0.70
2022-09-27T15:56:41.073Z,0.90
2022-09-27T15:59:15.196Z,0.80
2022-09-27T16:01:41.719Z,0.80
2022-09-27T16:04:09.213Z,0.70
2022-09-27T16:06:35.764Z,0.80
2022-09-27T16:09:02.184Z,1.00
2022-09-27T16:11:28.681Z,0.77
2022-09-27T16:13:55.161Z,0.80
2022-09-27T16:16:22.322Z,1.03
2022-09-27T16:18:51.854Z,1.40
2022-09-27T16:21:18.273Z,1.37
2022-09-27T16:23:44.706Z,1.83
2022-09-27T16:26:11.363Z,1.30
2022-09-27T16:28:37.803Z,1.30
2022-09-27T16:31:06.377Z,1.57
2022-09-27T16:33:33.295Z,1.73
2022-09-27T16:36:01.369Z,1.80
2022-09-27T16:38:30.297Z,1.50
2022-09-27T16:41:02.089Z,1.20
2022-09-27T16:43:31.979Z,1.20
2022-09-27T16:46:08.430Z,0.80
2022-09-27T16:48:35.348Z,0.90
2022-09-27T16:51:32.471Z,0.93
2022-09-27T16:53:58.874Z,1.10
2022-09-27T16:56:26.242Z,1.03
2022-09-27T16:58:52.691Z,0.93
2022-09-27T17:01:19.247Z,1.00
2022-09-27T17:03:54.456Z,1.17
2022-09-27T17:06:24.638Z,1.00
2022-09-27T17:08:51.126Z,1.03
2022-09-27T17:11:19.416Z,1.00
2022-09-27T17:13:47.771Z,0.90
2022-09-27T17:16:14.389Z,0.90
2022-09-27T17:18:41.176Z,1.07
2022-09-27T17:21:09.089Z,0.97
2022-09-27T17:23:35.907Z,1.30
2022-09-27T17:26:06.744Z,1.23
2022-09-27T17:28:34.169Z,1.33
2022-09-27T17:31:11.806Z,1.10
2022-09-27T17:33:44.444Z,1.20
2022-09-27T17:36:17.440Z,1.20
2022-09-27T17:38:45.705Z,0.90
2022-09-27T17:41:14.337Z,1.37
2022-09-27T17:43:51.387Z,1.20
2022-09-27T17:46:20.435Z,1.00
2022-09-27T17:49:07.334Z,1.33
2022-09-27T17:51:35.284Z,1.30
2022-09-27T17:54:02.425Z,1.33
2022-09-27T17:56:28.838Z,1.20
2022-09-27T17:58:56.019Z,1.40
2022-09-27T18:01:24.124Z,1.20
2022-09-27T18:03:55.053Z,1.10
2022-09-27T18:06:22.922Z,1.10
2022-09-27T18:08:50.056Z,1.17
2022-09-27T18:11:21.915Z,1.30
2022-09-27T18:13:49.011Z,1.20
2022-09-27T18:16:17.611Z,1.20
2022-09-27T18:18:47.276Z,1.00
2022-09-27T18:21:15.865Z,1.20
2022-09-27T18:23:43.441Z,1.50
2022-09-27T18:26:10.932Z,1.50
2022-09-27T18:28:40.068Z,1.50
2022-09-27T18:31:15.809Z,1.80
2022-09-27T18:33:42.583Z,1.87
2022-09-27T18:36:14.986Z,1.57
2022-09-27T18:38:41.556Z,1.40
2022-09-27T18:41:16.441Z,1.50
2022-09-27T18:43:44.735Z,1.80
2022-09-27T18:46:34.495Z,1.70
2022-09-27T18:49:01.291Z,1.70
2022-09-27T18:51:29.207Z,1.80
2022-09-27T18:53:57.388Z,1.40
2022-09-27T18:56:24.669Z,1.83
2022-09-27T18:58:52.804Z,1.80
2022-09-27T19:01:21.067Z,1.70
2022-09-27T19:03:47.859Z,1.70
2022-09-27T19:06:20.173Z,1.80
2022-09-27T19:08:47.128Z,1.90
2022-09-27T19:11:17.841Z,2.10
2022-09-27T19:13:51.229Z,1.87
2022-09-27T19:16:20.820Z,2.10
2022-09-27T19:18:47.932Z,2.10
2022-09-27T19:21:17.026Z,1.90
2022-09-27T19:23:43.683Z,1.90
2022-09-27T19:26:13.824Z,1.93
2022-09-27T19:28:42.130Z,1.90
2022-09-27T19:31:17.641Z,2.00
2022-09-27T19:33:44.414Z,1.93
2022-09-27T19:36:15.021Z,2.27
2022-09-27T19:38:44.121Z,2.13
2022-09-27T19:41:13.068Z,1.80
2022-09-27T19:43:39.569Z,2.23
2022-09-27T19:46:08.094Z,2.37
2022-09-27T19:48:38.540Z,2.20
2022-09-27T19:51:05.915Z,2.30
2022-09-27T19:53:33.023Z,2.20
2022-09-27T19:56:03.565Z,1.97
2022-09-27T19:58:31.268Z,2.10
2022-09-27T20:01:08.673Z,2.37
2022-09-27T20:03:37.099Z,2.40
2022-09-27T20:06:05.367Z,2.43
2022-09-27T20:08:31.784Z,2.00
2022-09-27T20:11:05.882Z,2.10
2022-09-27T20:13:33.909Z,2.00
2022-09-27T20:16:20.786Z,1.90
2022-09-27T20:18:49.387Z,2.13
2022-09-27T20:21:16.634Z,1.87
2022-09-27T20:23:43.626Z,1.83
2022-09-27T20:26:13.084Z,1.60
2022-09-27T20:28:44.259Z,1.90
2022-09-27T20:31:12.776Z,1.77
2022-09-27T20:33:42.296Z,2.00
2022-09-27T20:36:17.036Z,1.53
2022-09-27T20:38:45.169Z,1.90
2022-09-27T20:41:13.074Z,2.00
2022-09-27T20:43:39.912Z,2.60
2022-09-27T20:46:08.624Z,1.90
2022-09-27T20:48:36.180Z,2.00
2022-09-27T20:51:04.663Z,2.20
2022-09-27T20:53:31.590Z,2.10
2022-09-27T20:55:59.449Z,2.20
2022-09-27T20:58:26.258Z,2.47
2022-09-27T21:00:53.034Z,2.10
2022-09-27T21:03:21.916Z,1.83
2022-09-27T21:05:58.700Z,2.43
2022-09-27T21:08:25.685Z,2.20
2022-09-27T21:10:53.808Z,2.27
2022-09-27T21:13:20.686Z,2.53
2022-09-27T21:15:47.641Z,2.73
2022-09-27T21:18:14.437Z,2.40
2022-09-27T21:20:40.902Z,2.20
2022-09-27T21:23:07.305Z,2.33
2022-09-27T21:25:33.705Z,2.80
2022-09-27T21:28:00.767Z,2.47
2022-09-27T21:30:27.665Z,2.90
2022-09-27T21:32:55.168Z,2.80
2022-09-27T21:35:22.091Z,2.70
2022-09-27T21:37:48.678Z,3.00
2022-09-27T21:40:15.603Z,3.00
2022-09-27T21:42:42.143Z,2.50
2022-09-27T21:45:09.082Z,2.70
2022-09-27T21:47:35.483Z,2.93
2022-09-27T21:50:01.903Z,2.90
2022-09-27T21:52:28.325Z,3.23
2022-09-27T21:54:54.717Z,2.87
2022-09-27T21:57:21.127Z,3.20
2022-09-27T21:59:47.712Z,2.90
2022-09-27T22:02:14.182Z,3.20
2022-09-27T22:04:40.636Z,3.30
2022-09-27T22:07:07.004Z,3.20
2022-09-27T22:09:33.376Z,3.30
2022-09-27T22:11:59.817Z,3.27
2022-09-27T22:14:26.191Z,3.33
2022-09-27T22:16:52.646Z,3.30
2022-09-27T22:19:19.389Z,3.40
2022-09-27T22:21:45.964Z,3.87
2022-09-27T22:24:14.941Z,3.67
2022-09-27T22:26:42.486Z,3.97
2022-09-27T22:29:08.997Z,3.57
2022-09-27T22:31:35.563Z,3.60
2022-09-27T22:34:04.362Z,3.27
2022-09-27T22:36:31.920Z,3.73
2022-09-27T22:38:58.298Z,3.73
2022-09-27T22:41:25.222Z,3.67
2022-09-27T22:43:53.459Z,3.30
2022-09-27T22:46:20.690Z,3.83
2022-09-27T22:48:47.363Z,4.00
2022-09-27T22:51:13.734Z,3.87
2022-09-27T22:53:40.230Z,3.83
2022-09-27T22:56:09.206Z,3.93
2022-09-27T22:58:36.722Z,3.77
2022-09-27T23:01:20.455Z,3.50
2022-09-27T23:03:48.039Z,3.77
2022-09-27T23:06:16.177Z,4.00
2022-09-27T23:08:42.915Z,3.70
2022-09-27T23:11:14.122Z,3.50
2022-09-27T23:13:41.995Z,4.10
2022-09-27T23:16:17.836Z,4.50
2022-09-27T23:18:44.614Z,3.73
2022-09-27T23:21:12.969Z,3.67
2022-09-27T23:23:41.559Z,3.73
2022-09-27T23:26:10.559Z,3.90
2022-09-27T23:28:37.238Z,3.80
2022-09-27T23:31:14.681Z,3.47
2022-09-27T23:33:43.425Z,4.20
2022-09-27T23:36:12.820Z,3.77
2022-09-27T23:38:41.016Z,3.50
2022-09-27T23:41:08.271Z,3.90
2022-09-27T23:43:36.093Z,4.23
2022-09-27T23:46:04.057Z,4.87
2022-09-27T23:48:30.589Z,4.30
2022-09-27T23:50:57.219Z,3.87
2022-09-27T23:53:23.685Z,4.43
2022-09-27T23:56:04.740Z,4.00
2022-09-27T23:58:42.014Z,4.03
